sensor_id;sensor_type;location;lat;lon;timestamp;temperature;humidity
21672;DHT22;10997;52.242;8.168;2024-02-21T00:01:41;8.40;99.90
21672;DHT22;10997;52.242;8.168;2024-02-21T00:06:42;8.40;99.90
21672;DHT22;10997;52.242;8.168;2024-02-21T00:11:42;8.40;99.90
21672;DHT22;10997;52.242;8.168;2024-02-21T00:16:43;8.40;99.90
21672;DHT22;10997;52.242;8.168;2024-02-21T00:21:44;8.40;99.90
21672;DHT22;10997;52.242;8.168;2024-02-21T00:26:44;8.40;99.90
21672;DHT22;10997;52.242;8.168;2024-02-21T00:31:45;8.40;99.90
21672;DHT22;10997;52.242;8.168;2024-02-21T00:36:45;8.40;99.90
21672;DHT22;10997;52.242;8.168;2024-02-21T00:41:46;8.40;99.90
21672;DHT22;10997;52.242;8.168;2024-02-21T00:46:47;8.40;99.90
21672;DHT22;10997;52.242;8.168;2024-02-21T00:51:47;8.40;99.90
21672;DHT22;10997;52.242;8.168;2024-02-21T00:56:48;8.40;99.90
21672;DHT22;10997;52.242;8.168;2024-02-21T01:01:49;8.40;99.90
21672;DHT22;10997;52.242;8.168;2024-02-21T01:06:49;8.40;99.90
21672;DHT22;10997;52.242;8.168;2024-02-21T01:11:50;8.40;99.90
21672;DHT22;10997;52.242;8.168;2024-02-21T01:16:50;8.50;99.90
21672;DHT22;10997;52.242;8.168;2024-02-21T01:21:52;8.50;99.90
21672;DHT22;10997;52.242;8.168;2024-02-21T01:26:52;8.40;99.90
21672;DHT22;10997;52.242;8.168;2024-02-21T01:31:53;8.50;99.90
21672;DHT22;10997;52.242;8.168;2024-02-21T01:36:53;8.50;99.90
21672;DHT22;10997;52.242;8.168;2024-02-21T01:41:54;8.50;99.90
21672;DHT22;10997;52.242;8.168;2024-02-21T01:46:55;8.50;99.90
21672;DHT22;10997;52.242;8.168;2024-02-21T01:51:55;8.50;99.90
21672;DHT22;10997;52.242;8.168;2024-02-21T01:56:56;8.50;99.90
21672;DHT22;10997;52.242;8.168;2024-02-21T02:01:58;8.50;99.90
21672;DHT22;10997;52.242;8.168;2024-02-21T02:07:02;8.50;99.90
21672;DHT22;10997;52.242;8.168;2024-02-21T02:12:03;8.50;99.90
21672;DHT22;10997;52.242;8.168;2024-02-21T02:17:04;8.50;99.90
21672;DHT22;10997;52.242;8.168;2024-02-21T02:22:18;8.50;99.90
21672;DHT22;10997;52.242;8.168;2024-02-21T02:27:21;8.50;99.90
21672;DHT22;10997;52.242;8.168;2024-02-21T02:32:23;8.50;99.90
21672;DHT22;10997;52.242;8.168;2024-02-21T02:37:23;8.50;99.90
21672;DHT22;10997;52.242;8.168;2024-02-21T02:42:24;8.40;99.90
21672;DHT22;10997;52.242;8.168;2024-02-21T02:47:25;8.30;99.90
21672;DHT22;10997;52.242;8.168;2024-02-21T02:52:25;8.30;99.90
21672;DHT22;10997;52.242;8.168;2024-02-21T02:57:26;8.30;99.90
21672;DHT22;10997;52.242;8.168;2024-02-21T03:02:26;8.30;99.90
21672;DHT22;10997;52.242;8.168;2024-02-21T03:07:27;8.40;99.90
21672;DHT22;10997;52.242;8.168;2024-02-21T03:12:28;8.40;99.90
21672;DHT22;10997;52.242;8.168;2024-02-21T03:17:29;8.40;99.90
21672;DHT22;10997;52.242;8.168;2024-02-21T03:22:31;8.40;99.90
21672;DHT22;10997;52.242;8.168;2024-02-21T03:27:32;8.40;99.90
21672;DHT22;10997;52.242;8.168;2024-02-21T03:32:33;8.50;99.90
21672;DHT22;10997;52.242;8.168;2024-02-21T03:37:34;8.50;99.90
21672;DHT22;10997;52.242;8.168;2024-02-21T03:42:35;8.50;99.90
21672;DHT22;10997;52.242;8.168;2024-02-21T03:47:35;8.50;99.90
21672;DHT22;10997;52.242;8.168;2024-02-21T03:52:36;8.50;99.90
21672;DHT22;10997;52.242;8.168;2024-02-21T03:57:37;8.50;99.90
21672;DHT22;10997;52.242;8.168;2024-02-21T04:02:37;8.50;99.90
21672;DHT22;10997;52.242;8.168;2024-02-21T04:07:38;8.50;99.90
21672;DHT22;10997;52.242;8.168;2024-02-21T04:12:39;8.50;99.90
21672;DHT22;10997;52.242;8.168;2024-02-21T04:17:40;8.50;99.90
21672;DHT22;10997;52.242;8.168;2024-02-21T04:22:42;8.50;99.90
21672;DHT22;10997;52.242;8.168;2024-02-21T04:27:43;8.40;99.90
21672;DHT22;10997;52.242;8.168;2024-02-21T04:32:43;8.40;99.90
21672;DHT22;10997;52.242;8.168;2024-02-21T04:37:44;8.30;99.90
21672;DHT22;10997;52.242;8.168;2024-02-21T04:42:45;8.30;99.90
21672;DHT22;10997;52.242;8.168;2024-02-21T04:47:45;8.20;99.90
21672;DHT22;10997;52.242;8.168;2024-02-21T04:52:46;8.20;99.90
21672;DHT22;10997;52.242;8.168;2024-02-21T04:57:47;8.20;99.90
21672;DHT22;10997;52.242;8.168;2024-02-21T05:02:47;8.20;99.90
21672;DHT22;10997;52.242;8.168;2024-02-21T05:07:48;8.10;99.90
21672;DHT22;10997;52.242;8.168;2024-02-21T05:12:48;8.10;99.90
21672;DHT22;10997;52.242;8.168;2024-02-21T05:17:50;8.10;99.90
21672;DHT22;10997;52.242;8.168;2024-02-21T05:22:50;8.20;99.90
21672;DHT22;10997;52.242;8.168;2024-02-21T05:27:51;8.20;99.90
21672;DHT22;10997;52.242;8.168;2024-02-21T05:32:54;8.20;99.90
21672;DHT22;10997;52.242;8.168;2024-02-21T05:37:54;8.20;99.90
21672;DHT22;10997;52.242;8.168;2024-02-21T05:42:55;8.20;99.90
21672;DHT22;10997;52.242;8.168;2024-02-21T05:47:55;8.20;99.90
21672;DHT22;10997;52.242;8.168;2024-02-21T05:52:57;8.20;99.90
21672;DHT22;10997;52.242;8.168;2024-02-21T05:57:58;8.20;99.90
21672;DHT22;10997;52.242;8.168;2024-02-21T06:02:59;8.20;99.90
21672;DHT22;10997;52.242;8.168;2024-02-21T06:07:59;8.20;99.90
21672;DHT22;10997;52.242;8.168;2024-02-21T06:13:00;8.20;99.90
21672;DHT22;10997;52.242;8.168;2024-02-21T06:18:01;8.20;99.90
21672;DHT22;10997;52.242;8.168;2024-02-21T06:23:01;8.20;99.90
21672;DHT22;10997;52.242;8.168;2024-02-21T06:28:02;8.20;99.90
21672;DHT22;10997;52.242;8.168;2024-02-21T06:33:03;8.20;99.90
21672;DHT22;10997;52.242;8.168;2024-02-21T06:38:04;8.30;99.90
21672;DHT22;10997;52.242;8.168;2024-02-21T06:43:05;8.30;99.90
21672;DHT22;10997;52.242;8.168;2024-02-21T06:48:06;8.30;99.90
21672;DHT22;10997;52.242;8.168;2024-02-21T06:53:06;8.30;99.90
21672;DHT22;10997;52.242;8.168;2024-02-21T06:58:07;8.30;99.90
21672;DHT22;10997;52.242;8.168;2024-02-21T07:03:11;8.30;99.90
21672;DHT22;10997;52.242;8.168;2024-02-21T07:08:12;8.30;99.90
21672;DHT22;10997;52.242;8.168;2024-02-21T07:13:13;8.30;99.90
21672;DHT22;10997;52.242;8.168;2024-02-21T07:18:16;8.30;99.90
21672;DHT22;10997;52.242;8.168;2024-02-21T07:23:16;8.40;99.90
21672;DHT22;10997;52.242;8.168;2024-02-21T07:28:17;8.40;99.90
21672;DHT22;10997;52.242;8.168;2024-02-21T07:33:18;8.50;99.90
21672;DHT22;10997;52.242;8.168;2024-02-21T07:38:18;8.50;99.90
21672;DHT22;10997;52.242;8.168;2024-02-21T07:43:20;8.50;99.90
21672;DHT22;10997;52.242;8.168;2024-02-21T07:48:22;8.50;99.90
21672;DHT22;10997;52.242;8.168;2024-02-21T07:53:27;8.50;99.90
21672;DHT22;10997;52.242;8.168;2024-02-21T07:58:27;8.60;99.90
21672;DHT22;10997;52.242;8.168;2024-02-21T08:03:28;8.60;99.90
21672;DHT22;10997;52.242;8.168;2024-02-21T08:08:28;8.60;99.90
21672;DHT22;10997;52.242;8.168;2024-02-21T08:13:29;8.60;99.90
21672;DHT22;10997;52.242;8.168;2024-02-21T08:18:30;8.60;99.90
21672;DHT22;10997;52.242;8.168;2024-02-21T08:23:30;8.60;99.90
21672;DHT22;10997;52.242;8.168;2024-02-21T08:28:31;8.70;99.90
21672;DHT22;10997;52.242;8.168;2024-02-21T08:33:32;8.80;99.90
21672;DHT22;10997;52.242;8.168;2024-02-21T08:38:32;8.80;99.90
21672;DHT22;10997;52.242;8.168;2024-02-21T08:43:33;9.00;99.90
21672;DHT22;10997;52.242;8.168;2024-02-21T08:48:36;9.00;99.90
21672;DHT22;10997;52.242;8.168;2024-02-21T08:53:36;9.10;99.90
21672;DHT22;10997;52.242;8.168;2024-02-21T08:58:39;9.10;99.90
21672;DHT22;10997;52.242;8.168;2024-02-21T09:03:40;9.20;99.90
21672;DHT22;10997;52.242;8.168;2024-02-21T09:08:41;9.20;99.90
21672;DHT22;10997;52.242;8.168;2024-02-21T09:13:41;9.40;99.90
21672;DHT22;10997;52.242;8.168;2024-02-21T09:18:42;9.50;99.90
21672;DHT22;10997;52.242;8.168;2024-02-21T09:23:43;9.60;99.90
21672;DHT22;10997;52.242;8.168;2024-02-21T09:28:43;9.60;99.90
21672;DHT22;10997;52.242;8.168;2024-02-21T09:33:47;9.80;99.90
21672;DHT22;10997;52.242;8.168;2024-02-21T09:38:48;9.90;99.90
21672;DHT22;10997;52.242;8.168;2024-02-21T09:43:50;10.00;99.90
21672;DHT22;10997;52.242;8.168;2024-02-21T09:54:18;10.20;99.90
21672;DHT22;10997;52.242;8.168;2024-02-21T09:59:19;10.30;99.90
21672;DHT22;10997;52.242;8.168;2024-02-21T10:04:20;10.30;99.90
21672;DHT22;10997;52.242;8.168;2024-02-21T10:09:26;10.20;99.90
21672;DHT22;10997;52.242;8.168;2024-02-21T10:14:29;10.20;99.90
21672;DHT22;10997;52.242;8.168;2024-02-21T10:19:30;10.30;99.90
21672;DHT22;10997;52.242;8.168;2024-02-21T10:24:31;10.30;99.90
21672;DHT22;10997;52.242;8.168;2024-02-21T10:29:33;10.20;99.90
21672;DHT22;10997;52.242;8.168;2024-02-21T10:34:34;10.00;99.90
21672;DHT22;10997;52.242;8.168;2024-02-21T10:39:38;10.10;99.90
21672;DHT22;10997;52.242;8.168;2024-02-21T10:44:40;10.10;99.90
21672;DHT22;10997;52.242;8.168;2024-02-21T10:49:42;10.20;99.90
21672;DHT22;10997;52.242;8.168;2024-02-21T10:54:50;10.20;99.90
21672;DHT22;10997;52.242;8.168;2024-02-21T10:59:53;10.40;99.90
21672;DHT22;10997;52.242;8.168;2024-02-21T11:04:55;10.40;99.90
21672;DHT22;10997;52.242;8.168;2024-02-21T11:09:57;10.60;99.90
21672;DHT22;10997;52.242;8.168;2024-02-21T11:15:04;10.70;99.90
21672;DHT22;10997;52.242;8.168;2024-02-21T11:20:13;10.80;99.90
21672;DHT22;10997;52.242;8.168;2024-02-21T11:25:21;10.60;99.90
21672;DHT22;10997;52.242;8.168;2024-02-21T11:30:27;10.50;99.90
21672;DHT22;10997;52.242;8.168;2024-02-21T11:35:31;10.50;99.90
21672;DHT22;10997;52.242;8.168;2024-02-21T11:40:33;10.60;99.90
21672;DHT22;10997;52.242;8.168;2024-02-21T11:45:34;10.70;99.90
21672;DHT22;10997;52.242;8.168;2024-02-21T11:50:35;10.60;99.90
21672;DHT22;10997;52.242;8.168;2024-02-21T11:55:37;10.60;99.90
21672;DHT22;10997;52.242;8.168;2024-02-21T12:00:37;10.70;99.90
21672;DHT22;10997;52.242;8.168;2024-02-21T12:05:38;10.50;99.90
21672;DHT22;10997;52.242;8.168;2024-02-21T12:10:39;10.30;99.90
21672;DHT22;10997;52.242;8.168;2024-02-21T12:15:39;10.20;99.90
21672;DHT22;10997;52.242;8.168;2024-02-21T12:20:41;10.10;99.90
21672;DHT22;10997;52.242;8.168;2024-02-21T12:25:43;10.10;99.90
21672;DHT22;10997;52.242;8.168;2024-02-21T12:30:44;10.00;99.90
21672;DHT22;10997;52.242;8.168;2024-02-21T12:35:44;9.90;99.90
21672;DHT22;10997;52.242;8.168;2024-02-21T12:40:45;9.90;99.90
21672;DHT22;10997;52.242;8.168;2024-02-21T12:45:46;9.90;99.90
21672;DHT22;10997;52.242;8.168;2024-02-21T12:50:50;10.00;99.90
21672;DHT22;10997;52.242;8.168;2024-02-21T12:55:54;9.80;99.90
21672;DHT22;10997;52.242;8.168;2024-02-21T13:00:54;9.80;99.90
21672;DHT22;10997;52.242;8.168;2024-02-21T13:05:55;9.80;99.90
21672;DHT22;10997;52.242;8.168;2024-02-21T13:10:56;9.80;99.90
21672;DHT22;10997;52.242;8.168;2024-02-21T13:15:57;10.10;99.90
21672;DHT22;10997;52.242;8.168;2024-02-21T13:20:58;10.10;99.90
21672;DHT22;10997;52.242;8.168;2024-02-21T13:25:59;10.20;99.90
21672;DHT22;10997;52.242;8.168;2024-02-21T13:30:59;10.10;99.90
21672;DHT22;10997;52.242;8.168;2024-02-21T13:36:00;10.30;99.90
21672;DHT22;10997;52.242;8.168;2024-02-21T13:41:02;10.30;99.90
21672;DHT22;10997;52.242;8.168;2024-02-21T13:46:03;10.30;99.90
21672;DHT22;10997;52.242;8.168;2024-02-21T13:51:05;10.20;99.90
21672;DHT22;10997;52.242;8.168;2024-02-21T13:56:06;10.10;99.90
21672;DHT22;10997;52.242;8.168;2024-02-21T14:01:07;9.90;99.90
21672;DHT22;10997;52.242;8.168;2024-02-21T14:06:07;9.80;99.90
21672;DHT22;10997;52.242;8.168;2024-02-21T14:11:08;9.90;99.90
21672;DHT22;10997;52.242;8.168;2024-02-21T14:16:10;10.00;99.90
21672;DHT22;10997;52.242;8.168;2024-02-21T14:21:13;10.00;99.90
21672;DHT22;10997;52.242;8.168;2024-02-21T14:26:14;9.90;99.90
21672;DHT22;10997;52.242;8.168;2024-02-21T14:31:15;10.00;99.90
21672;DHT22;10997;52.242;8.168;2024-02-21T14:36:15;10.00;99.90
21672;DHT22;10997;52.242;8.168;2024-02-21T14:41:16;10.10;99.90
21672;DHT22;10997;52.242;8.168;2024-02-21T14:46:17;10.10;99.90
21672;DHT22;10997;52.242;8.168;2024-02-21T14:51:17;10.20;99.90
21672;DHT22;10997;52.242;8.168;2024-02-21T14:56:18;10.20;99.90
21672;DHT22;10997;52.242;8.168;2024-02-21T15:01:19;10.20;99.90
21672;DHT22;10997;52.242;8.168;2024-02-21T15:06:19;10.20;99.90
21672;DHT22;10997;52.242;8.168;2024-02-21T15:11:20;10.10;99.90
21672;DHT22;10997;52.242;8.168;2024-02-21T15:16:22;10.10;99.90
21672;DHT22;10997;52.242;8.168;2024-02-21T15:21:23;10.00;99.90
21672;DHT22;10997;52.242;8.168;2024-02-21T15:26:24;10.00;99.90
21672;DHT22;10997;52.242;8.168;2024-02-21T15:31:25;10.00;99.90
21672;DHT22;10997;52.242;8.168;2024-02-21T15:36:25;10.00;99.90
21672;DHT22;10997;52.242;8.168;2024-02-21T15:41:28;9.90;99.90
21672;DHT22;10997;52.242;8.168;2024-02-21T15:46:29;9.90;99.90
21672;DHT22;10997;52.242;8.168;2024-02-21T15:51:31;9.80;99.90
21672;DHT22;10997;52.242;8.168;2024-02-21T15:56:32;9.70;99.90
21672;DHT22;10997;52.242;8.168;2024-02-21T16:01:32;9.70;99.90
21672;DHT22;10997;52.242;8.168;2024-02-21T16:06:35;9.60;99.90
21672;DHT22;10997;52.242;8.168;2024-02-21T16:11:36;9.50;99.90
21672;DHT22;10997;52.242;8.168;2024-02-21T16:16:36;9.50;99.90
21672;DHT22;10997;52.242;8.168;2024-02-21T16:21:40;9.50;99.90
21672;DHT22;10997;52.242;8.168;2024-02-21T16:26:41;9.40;99.90
21672;DHT22;10997;52.242;8.168;2024-02-21T16:31:42;9.40;99.90
21672;DHT22;10997;52.242;8.168;2024-02-21T16:36:43;9.40;99.90
21672;DHT22;10997;52.242;8.168;2024-02-21T16:41:44;9.40;99.90
21672;DHT22;10997;52.242;8.168;2024-02-21T16:46:45;9.40;99.90
21672;DHT22;10997;52.242;8.168;2024-02-21T16:51:46;9.30;99.90
21672;DHT22;10997;52.242;8.168;2024-02-21T16:56:46;9.30;99.90
21672;DHT22;10997;52.242;8.168;2024-02-21T17:01:47;9.40;99.90
21672;DHT22;10997;52.242;8.168;2024-02-21T17:06:51;9.40;99.90
21672;DHT22;10997;52.242;8.168;2024-02-21T17:11:52;9.30;99.90
21672;DHT22;10997;52.242;8.168;2024-02-21T17:16:53;9.30;99.90
21672;DHT22;10997;52.242;8.168;2024-02-21T17:21:55;9.40;99.90
21672;DHT22;10997;52.242;8.168;2024-02-21T17:26:55;9.40;99.90
21672;DHT22;10997;52.242;8.168;2024-02-21T17:31:56;9.40;99.90
21672;DHT22;10997;52.242;8.168;2024-02-21T17:36:57;9.40;99.90
21672;DHT22;10997;52.242;8.168;2024-02-21T17:41:57;9.40;99.90
21672;DHT22;10997;52.242;8.168;2024-02-21T17:46:58;9.40;99.90
21672;DHT22;10997;52.242;8.168;2024-02-21T17:51:59;9.50;99.90
21672;DHT22;10997;52.242;8.168;2024-02-21T17:56:59;9.50;99.90
21672;DHT22;10997;52.242;8.168;2024-02-21T18:02:00;9.40;99.90
21672;DHT22;10997;52.242;8.168;2024-02-21T18:07:01;9.40;99.90
21672;DHT22;10997;52.242;8.168;2024-02-21T18:12:03;9.20;99.90
21672;DHT22;10997;52.242;8.168;2024-02-21T18:17:04;9.10;99.90
21672;DHT22;10997;52.242;8.168;2024-02-21T18:22:05;9.00;99.90
21672;DHT22;10997;52.242;8.168;2024-02-21T18:27:07;8.90;99.90
21672;DHT22;10997;52.242;8.168;2024-02-21T18:32:07;8.70;99.90
21672;DHT22;10997;52.242;8.168;2024-02-21T18:37:09;8.70;99.90
21672;DHT22;10997;52.242;8.168;2024-02-21T18:42:10;8.60;99.90
21672;DHT22;10997;52.242;8.168;2024-02-21T18:47:11;8.50;99.90
21672;DHT22;10997;52.242;8.168;2024-02-21T18:52:12;8.50;99.90
21672;DHT22;10997;52.242;8.168;2024-02-21T18:57:13;8.50;99.90
21672;DHT22;10997;52.242;8.168;2024-02-21T19:02:16;8.30;99.90
21672;DHT22;10997;52.242;8.168;2024-02-21T19:07:18;8.30;99.90
21672;DHT22;10997;52.242;8.168;2024-02-21T19:12:19;8.20;99.90
21672;DHT22;10997;52.242;8.168;2024-02-21T19:17:19;8.10;99.90
21672;DHT22;10997;52.242;8.168;2024-02-21T19:22:20;8.10;99.90
21672;DHT22;10997;52.242;8.168;2024-02-21T19:27:22;8.00;99.90
21672;DHT22;10997;52.242;8.168;2024-02-21T19:32:23;8.00;99.90
21672;DHT22;10997;52.242;8.168;2024-02-21T19:37:24;7.90;99.90
21672;DHT22;10997;52.242;8.168;2024-02-21T19:42:24;7.90;99.90
21672;DHT22;10997;52.242;8.168;2024-02-21T19:47:27;7.80;99.90
21672;DHT22;10997;52.242;8.168;2024-02-21T19:52:27;7.80;99.90
21672;DHT22;10997;52.242;8.168;2024-02-21T19:57:28;7.80;99.90
21672;DHT22;10997;52.242;8.168;2024-02-21T20:02:29;7.80;99.90
21672;DHT22;10997;52.242;8.168;2024-02-21T20:07:30;7.70;99.90
21672;DHT22;10997;52.242;8.168;2024-02-21T20:12:30;7.70;99.90
21672;DHT22;10997;52.242;8.168;2024-02-21T20:17:34;7.70;99.90
21672;DHT22;10997;52.242;8.168;2024-02-21T20:22:34;7.70;99.90
21672;DHT22;10997;52.242;8.168;2024-02-21T20:27:35;7.70;99.90
21672;DHT22;10997;52.242;8.168;2024-02-21T20:32:36;7.60;99.90
21672;DHT22;10997;52.242;8.168;2024-02-21T20:37:37;7.60;99.90
21672;DHT22;10997;52.242;8.168;2024-02-21T20:42:37;7.60;99.90
21672;DHT22;10997;52.242;8.168;2024-02-21T20:47:38;7.60;99.90
21672;DHT22;10997;52.242;8.168;2024-02-21T20:52:39;7.60;99.90
21672;DHT22;10997;52.242;8.168;2024-02-21T20:57:39;7.60;99.90
21672;DHT22;10997;52.242;8.168;2024-02-21T21:02:40;7.60;99.90
21672;DHT22;10997;52.242;8.168;2024-02-21T21:07:41;7.60;99.90
21672;DHT22;10997;52.242;8.168;2024-02-21T21:12:41;7.60;99.90
21672;DHT22;10997;52.242;8.168;2024-02-21T21:17:42;7.60;99.90
21672;DHT22;10997;52.242;8.168;2024-02-21T21:22:43;7.60;99.90
21672;DHT22;10997;52.242;8.168;2024-02-21T21:27:43;7.60;99.90
21672;DHT22;10997;52.242;8.168;2024-02-21T21:32:45;7.60;99.90
21672;DHT22;10997;52.242;8.168;2024-02-21T21:37:46;7.60;99.90
21672;DHT22;10997;52.242;8.168;2024-02-21T21:42:48;7.70;99.90
21672;DHT22;10997;52.242;8.168;2024-02-21T21:47:49;7.60;99.90
21672;DHT22;10997;52.242;8.168;2024-02-21T21:52:50;7.60;99.90
21672;DHT22;10997;52.242;8.168;2024-02-21T21:57:51;7.60;99.90
21672;DHT22;10997;52.242;8.168;2024-02-21T22:02:52;7.70;99.90
21672;DHT22;10997;52.242;8.168;2024-02-21T22:07:53;7.60;99.90
21672;DHT22;10997;52.242;8.168;2024-02-21T22:12:55;7.60;99.90
21672;DHT22;10997;52.242;8.168;2024-02-21T22:17:55;7.60;99.90
21672;DHT22;10997;52.242;8.168;2024-02-21T22:22:56;7.60;99.90
21672;DHT22;10997;52.242;8.168;2024-02-21T22:27:57;7.70;99.90
21672;DHT22;10997;52.242;8.168;2024-02-21T22:32:57;7.70;99.90
21672;DHT22;10997;52.242;8.168;2024-02-21T22:37:58;7.70;99.90
21672;DHT22;10997;52.242;8.168;2024-02-21T22:42:59;7.70;99.90
21672;DHT22;10997;52.242;8.168;2024-02-21T22:48:00;7.70;99.90
21672;DHT22;10997;52.242;8.168;2024-02-21T22:53:01;7.70;99.90
21672;DHT22;10997;52.242;8.168;2024-02-21T22:58:02;7.70;99.90
21672;DHT22;10997;52.242;8.168;2024-02-21T23:03:03;7.70;99.90
21672;DHT22;10997;52.242;8.168;2024-02-21T23:08:04;7.80;99.90
21672;DHT22;10997;52.242;8.168;2024-02-21T23:13:05;7.80;99.90
21672;DHT22;10997;52.242;8.168;2024-02-21T23:18:06;7.80;99.90
21672;DHT22;10997;52.242;8.168;2024-02-21T23:23:06;7.70;99.90
21672;DHT22;10997;52.242;8.168;2024-02-21T23:28:07;7.70;99.90
21672;DHT22;10997;52.242;8.168;2024-02-21T23:33:07;7.80;99.90
21672;DHT22;10997;52.242;8.168;2024-02-21T23:38:08;7.70;99.90
21672;DHT22;10997;52.242;8.168;2024-02-21T23:43:09;7.70;99.90
21672;DHT22;10997;52.242;8.168;2024-02-21T23:48:10;7.80;99.90
21672;DHT22;10997;52.242;8.168;2024-02-21T23:53:13;7.80;99.90
21672;DHT22;10997;52.242;8.168;2024-02-21T23:58:13;7.80;99.90
